Loraine, Illinois
Current Conditions -  °F | °C
As of 9:54 AM on Saturday 20 Dec 2014 (Local Time) from KUIN Reporting Station
Haze Haze  
Wind Chill: 28°   Ceiling: 1300
Heat Index: 35°   Visibility: 4mi
Dew Point: 30°   Wind: 9mph
Humidity: 82%   Direction: 180°S
Pressure: 30.25"   Gusts: NA
Location:  40.15°N, 91.22°W
Report Text: KUIN 201554Z AUTO 18008KT 4SM HZ BKN013 OVC029 02/M01 A3025 RMK AO2 SLP250 T00171011
Loading
Personal Weather Stations






























Interactive Weather Map New forecast layout! Learn more

10-Day Weather Forecast

Advertisements
Track Severe Weather on mobile